Prosper, North Dakota
Current Conditions -  °F | °C
As of 4:53 PM on Monday 24 Nov 2014 (Local Time) from KFAR Reporting Station
Clear Clear  
Wind Chill:   Ceiling: Unl
Heat Index: 18°   Visibility: 10mi
Dew Point: 10°   Wind: 21mph
Humidity: 71%   Direction: 340°NNW
Pressure: 29.91"   Gusts: NA
Location:  47.0192°N, 96.9474°W
Report Text: KFAR 242253Z 34018KT 10SM CLR M08/M12 A2991 RMK AO2 SLP149 T10781122
Loading
Personal Weather Stations






























Interactive Weather Map New forecast layout! Learn more

10-Day Weather Forecast

Advertisements
Track Severe Weather on mobile